sensor_id;sensor_type;location;lat;lon;timestamp;pressure;altitude;pressure_sealevel;temperature;humidity
40992;BME280;29633;49.168;9.848;2023-06-14T00:01:24;96444.56;;;20.70;46.30
40992;BME280;29633;49.168;9.848;2023-06-14T00:03:50;96445.94;;;20.66;46.64
40992;BME280;29633;49.168;9.848;2023-06-14T00:06:16;96446.34;;;20.62;46.71
40992;BME280;29633;49.168;9.848;2023-06-14T00:08:42;96447.34;;;20.61;46.42
40992;BME280;29633;49.168;9.848;2023-06-14T00:11:08;96446.72;;;20.59;46.43
40992;BME280;29633;49.168;9.848;2023-06-14T00:13:34;96448.34;;;20.60;46.49
40992;BME280;29633;49.168;9.848;2023-06-14T00:16:00;96442.28;;;20.60;46.38
40992;BME280;29633;49.168;9.848;2023-06-14T00:18:25;96442.66;;;20.57;46.72
40992;BME280;29633;49.168;9.848;2023-06-14T00:20:55;96441.84;;;20.56;46.29
40992;BME280;29633;49.168;9.848;2023-06-14T00:23:21;96442.03;;;20.55;46.46
40992;BME280;29633;49.168;9.848;2023-06-14T00:25:47;96433.69;;;20.51;46.59
40992;BME280;29633;49.168;9.848;2023-06-14T00:28:12;96436.72;;;20.48;46.70
40992;BME280;29633;49.168;9.848;2023-06-14T00:30:38;96435.28;;;20.46;46.68
40992;BME280;29633;49.168;9.848;2023-06-14T00:33:04;96442.38;;;20.45;46.77
40992;BME280;29633;49.168;9.848;2023-06-14T00:35:30;96437.50;;;20.42;46.47
40992;BME280;29633;49.168;9.848;2023-06-14T00:37:56;96438.72;;;20.40;46.58
40992;BME280;29633;49.168;9.848;2023-06-14T00:40:22;96433.63;;;20.38;46.74
40992;BME280;29633;49.168;9.848;2023-06-14T00:42:47;96439.88;;;20.37;46.57
40992;BME280;29633;49.168;9.848;2023-06-14T00:45:13;96434.84;;;20.36;46.55
40992;BME280;29633;49.168;9.848;2023-06-14T00:47:40;96428.94;;;20.34;46.85
40992;BME280;29633;49.168;9.848;2023-06-14T00:50:07;96434.41;;;20.32;46.98
40992;BME280;29633;49.168;9.848;2023-06-14T00:52:34;96432.47;;;20.26;46.96
40992;BME280;29633;49.168;9.848;2023-06-14T00:55:00;96429.63;;;20.21;46.85
40992;BME280;29633;49.168;9.848;2023-06-14T00:57:26;96437.47;;;20.14;47.30
40992;BME280;29633;49.168;9.848;2023-06-14T00:59:52;96429.50;;;20.08;47.23
40992;BME280;29633;49.168;9.848;2023-06-14T01:02:18;96435.53;;;20.02;47.30
40992;BME280;29633;49.168;9.848;2023-06-14T01:04:45;96429.22;;;19.96;47.09
40992;BME280;29633;49.168;9.848;2023-06-14T01:13:01;96430.13;;;19.82;47.52
40992;BME280;29633;49.168;9.848;2023-06-14T01:15:31;96432.66;;;19.76;47.20
40992;BME280;29633;49.168;9.848;2023-06-14T01:17:57;96431.63;;;19.70;47.30
40992;BME280;29633;49.168;9.848;2023-06-14T01:20:32;96422.31;;;19.68;47.24
40992;BME280;29633;49.168;9.848;2023-06-14T01:23:02;96434.81;;;19.65;47.41
40992;BME280;29633;49.168;9.848;2023-06-14T01:25:27;96434.00;;;19.65;47.42
40992;BME280;29633;49.168;9.848;2023-06-14T01:27:58;96427.28;;;19.62;47.62
40992;BME280;29633;49.168;9.848;2023-06-14T01:30:25;96435.19;;;19.62;47.59
40992;BME280;29633;49.168;9.848;2023-06-14T01:32:52;96431.94;;;19.60;47.39
40992;BME280;29633;49.168;9.848;2023-06-14T01:35:19;96435.75;;;19.58;47.50
40992;BME280;29633;49.168;9.848;2023-06-14T01:37:46;96432.06;;;19.52;47.69
40992;BME280;29633;49.168;9.848;2023-06-14T01:40:13;96431.25;;;19.52;47.56
40992;BME280;29633;49.168;9.848;2023-06-14T01:42:39;96425.53;;;19.48;47.61
40992;BME280;29633;49.168;9.848;2023-06-14T01:45:09;96424.91;;;19.46;47.75
40992;BME280;29633;49.168;9.848;2023-06-14T01:47:35;96423.09;;;19.47;47.63
40992;BME280;29633;49.168;9.848;2023-06-14T01:50:02;96427.72;;;19.45;47.70
40992;BME280;29633;49.168;9.848;2023-06-14T01:52:28;96429.72;;;19.43;47.70
40992;BME280;29633;49.168;9.848;2023-06-14T01:54:54;96421.19;;;19.41;47.79
40992;BME280;29633;49.168;9.848;2023-06-14T01:57:20;96428.94;;;19.42;47.69
40992;BME280;29633;49.168;9.848;2023-06-14T01:59:47;96426.44;;;19.41;47.83
40992;BME280;29633;49.168;9.848;2023-06-14T02:02:14;96425.63;;;19.40;47.62
40992;BME280;29633;49.168;9.848;2023-06-14T02:04:40;96432.69;;;19.40;47.50
40992;BME280;29633;49.168;9.848;2023-06-14T02:07:06;96434.19;;;19.42;47.85
40992;BME280;29633;49.168;9.848;2023-06-14T02:09:33;96425.28;;;19.43;47.86
40992;BME280;29633;49.168;9.848;2023-06-14T02:12:00;96430.72;;;19.42;47.78
40992;BME280;29633;49.168;9.848;2023-06-14T02:14:26;96432.88;;;19.38;47.97
40992;BME280;29633;49.168;9.848;2023-06-14T02:16:52;96439.88;;;19.31;47.86
40992;BME280;29633;49.168;9.848;2023-06-14T02:19:19;96442.69;;;19.30;47.75
40992;BME280;29633;49.168;9.848;2023-06-14T02:21:46;96435.78;;;19.29;47.90
40992;BME280;29633;49.168;9.848;2023-06-14T02:24:12;96435.63;;;19.30;48.01
40992;BME280;29633;49.168;9.848;2023-06-14T02:26:38;96436.88;;;19.34;48.06
40992;BME280;29633;49.168;9.848;2023-06-14T02:29:05;96434.88;;;19.36;47.95
40992;BME280;29633;49.168;9.848;2023-06-14T02:31:38;96439.31;;;19.36;47.83
40992;BME280;29633;49.168;9.848;2023-06-14T02:34:04;96443.13;;;19.33;47.91
40992;BME280;29633;49.168;9.848;2023-06-14T02:36:29;96439.25;;;19.29;48.17
40992;BME280;29633;49.168;9.848;2023-06-14T02:38:56;96442.25;;;19.26;47.95
40992;BME280;29633;49.168;9.848;2023-06-14T02:41:23;96429.09;;;19.26;48.22
40992;BME280;29633;49.168;9.848;2023-06-14T02:43:49;96424.22;;;19.23;48.31
40992;BME280;29633;49.168;9.848;2023-06-14T02:46:15;96428.22;;;19.19;48.01
40992;BME280;29633;49.168;9.848;2023-06-14T02:48:41;96428.59;;;19.16;48.26
40992;BME280;29633;49.168;9.848;2023-06-14T02:51:06;96433.84;;;19.16;48.36
40992;BME280;29633;49.168;9.848;2023-06-14T02:53:36;96432.31;;;19.07;48.23
40992;BME280;29633;49.168;9.848;2023-06-14T02:56:05;96435.22;;;18.97;48.29
40992;BME280;29633;49.168;9.848;2023-06-14T02:58:31;96440.03;;;18.94;48.35
40992;BME280;29633;49.168;9.848;2023-06-14T03:00:58;96435.69;;;18.86;48.65
40992;BME280;29633;49.168;9.848;2023-06-14T03:03:28;96432.63;;;18.83;48.53
40992;BME280;29633;49.168;9.848;2023-06-14T03:05:53;96440.22;;;18.78;48.68
40992;BME280;29633;49.168;9.848;2023-06-14T03:08:19;96448.66;;;18.73;48.61
40992;BME280;29633;49.168;9.848;2023-06-14T03:10:46;96447.84;;;18.73;48.52
40992;BME280;29633;49.168;9.848;2023-06-14T03:13:13;96444.13;;;18.67;48.75
40992;BME280;29633;49.168;9.848;2023-06-14T03:15:38;96446.13;;;18.65;48.61
40992;BME280;29633;49.168;9.848;2023-06-14T03:18:09;96448.09;;;18.63;48.66
40992;BME280;29633;49.168;9.848;2023-06-14T03:20:35;96450.56;;;18.64;48.60
40992;BME280;29633;49.168;9.848;2023-06-14T03:23:01;96453.81;;;18.66;48.84
40992;BME280;29633;49.168;9.848;2023-06-14T03:25:28;96449.81;;;18.71;48.62
40992;BME280;29633;49.168;9.848;2023-06-14T03:27:57;96448.22;;;18.70;48.50
40992;BME280;29633;49.168;9.848;2023-06-14T03:30:23;96457.53;;;18.72;48.78
40992;BME280;29633;49.168;9.848;2023-06-14T03:32:48;96461.16;;;18.71;48.91
40992;BME280;29633;49.168;9.848;2023-06-14T03:35:16;96462.94;;;18.71;48.73
40992;BME280;29633;49.168;9.848;2023-06-14T03:37:44;96459.53;;;18.70;48.81
40992;BME280;29633;49.168;9.848;2023-06-14T03:40:10;96460.31;;;18.71;48.75
40992;BME280;29633;49.168;9.848;2023-06-14T03:42:36;96463.78;;;18.71;48.58
40992;BME280;29633;49.168;9.848;2023-06-14T03:45:02;96465.25;;;18.74;48.83
40992;BME280;29633;49.168;9.848;2023-06-14T03:47:28;96468.50;;;18.76;48.78
40992;BME280;29633;49.168;9.848;2023-06-14T03:49:53;96475.19;;;18.78;48.60
40992;BME280;29633;49.168;9.848;2023-06-14T03:52:19;96483.06;;;18.78;48.75
40992;BME280;29633;49.168;9.848;2023-06-14T03:54:44;96482.59;;;18.75;48.64
40992;BME280;29633;49.168;9.848;2023-06-14T03:57:11;96479.72;;;18.70;48.83
40992;BME280;29633;49.168;9.848;2023-06-14T03:59:37;96484.16;;;18.69;48.82
40992;BME280;29633;49.168;9.848;2023-06-14T04:02:03;96487.59;;;18.70;48.95
40992;BME280;29633;49.168;9.848;2023-06-14T04:04:28;96480.34;;;18.72;48.92
40992;BME280;29633;49.168;9.848;2023-06-14T04:06:57;96484.25;;;18.76;48.86
40992;BME280;29633;49.168;9.848;2023-06-14T04:09:24;96491.13;;;18.77;49.02
40992;BME280;29633;49.168;9.848;2023-06-14T04:11:53;96490.94;;;18.78;48.83
40992;BME280;29633;49.168;9.848;2023-06-14T04:14:19;96491.59;;;18.80;49.00
40992;BME280;29633;49.168;9.848;2023-06-14T04:16:46;96495.66;;;18.83;48.77
40992;BME280;29633;49.168;9.848;2023-06-14T04:19:12;96496.28;;;18.85;48.89
40992;BME280;29633;49.168;9.848;2023-06-14T04:21:37;96503.81;;;18.88;48.93
40992;BME280;29633;49.168;9.848;2023-06-14T04:24:03;96510.69;;;18.89;48.98
40992;BME280;29633;49.168;9.848;2023-06-14T04:26:29;96502.63;;;18.90;49.12
40992;BME280;29633;49.168;9.848;2023-06-14T04:28:58;96504.88;;;18.93;48.97
40992;BME280;29633;49.168;9.848;2023-06-14T04:31:28;96512.22;;;18.98;49.00
40992;BME280;29633;49.168;9.848;2023-06-14T04:33:56;96517.94;;;19.01;49.14
40992;BME280;29633;49.168;9.848;2023-06-14T04:36:21;96516.59;;;19.05;49.12
40992;BME280;29633;49.168;9.848;2023-06-14T04:38:47;96516.22;;;19.08;48.85
40992;BME280;29633;49.168;9.848;2023-06-14T04:41:14;96515.69;;;19.13;49.11
40992;BME280;29633;49.168;9.848;2023-06-14T04:43:41;96513.66;;;19.15;48.99
40992;BME280;29633;49.168;9.848;2023-06-14T04:46:08;96512.47;;;19.17;49.18
40992;BME280;29633;49.168;9.848;2023-06-14T04:48:37;96511.94;;;19.22;48.99
40992;BME280;29633;49.168;9.848;2023-06-14T04:51:07;96508.78;;;19.27;49.12
40992;BME280;29633;49.168;9.848;2023-06-14T04:53:32;96509.22;;;19.30;49.19
40992;BME280;29633;49.168;9.848;2023-06-14T04:55:58;96513.13;;;19.34;49.27
40992;BME280;29633;49.168;9.848;2023-06-14T04:58:26;96513.56;;;19.38;49.00
40992;BME280;29633;49.168;9.848;2023-06-14T05:00:53;96520.94;;;19.42;49.12
40992;BME280;29633;49.168;9.848;2023-06-14T05:03:19;96523.81;;;19.47;49.07
40992;BME280;29633;49.168;9.848;2023-06-14T05:05:46;96519.97;;;19.50;49.47
40992;BME280;29633;49.168;9.848;2023-06-14T05:08:12;96524.06;;;19.52;49.38
40992;BME280;29633;49.168;9.848;2023-06-14T05:10:38;96521.69;;;19.57;49.36
40992;BME280;29633;49.168;9.848;2023-06-14T05:13:03;96516.72;;;19.62;49.39
40992;BME280;29633;49.168;9.848;2023-06-14T05:15:29;96523.84;;;19.69;49.19
40992;BME280;29633;49.168;9.848;2023-06-14T05:17:55;96524.94;;;19.74;49.39
40992;BME280;29633;49.168;9.848;2023-06-14T05:20:22;96526.97;;;19.79;49.13
40992;BME280;29633;49.168;9.848;2023-06-14T05:22:55;96521.00;;;19.85;49.22
40992;BME280;29633;49.168;9.848;2023-06-14T05:25:22;96526.50;;;19.90;49.22
40992;BME280;29633;49.168;9.848;2023-06-14T05:27:48;96522.31;;;19.95;49.44
40992;BME280;29633;49.168;9.848;2023-06-14T05:30:14;96527.03;;;20.00;49.10
40992;BME280;29633;49.168;9.848;2023-06-14T05:32:41;96531.91;;;20.03;49.06
40992;BME280;29633;49.168;9.848;2023-06-14T05:35:10;96530.16;;;20.10;49.24
40992;BME280;29633;49.168;9.848;2023-06-14T05:37:36;96535.31;;;20.18;49.27
40992;BME280;29633;49.168;9.848;2023-06-14T05:40:03;96543.44;;;20.23;49.35
40992;BME280;29633;49.168;9.848;2023-06-14T05:42:31;96545.16;;;20.31;49.38
40992;BME280;29633;49.168;9.848;2023-06-14T05:44:57;96549.66;;;20.37;49.22
40992;BME280;29633;49.168;9.848;2023-06-14T05:47:22;96543.44;;;20.44;49.49
40992;BME280;29633;49.168;9.848;2023-06-14T05:49:48;96544.69;;;20.48;49.46
40992;BME280;29633;49.168;9.848;2023-06-14T05:52:13;96542.91;;;20.55;49.20
40992;BME280;29633;49.168;9.848;2023-06-14T05:54:39;96547.44;;;20.61;49.20
40992;BME280;29633;49.168;9.848;2023-06-14T05:57:06;96550.31;;;20.67;49.42
40992;BME280;29633;49.168;9.848;2023-06-14T05:59:32;96562.53;;;20.74;49.42
40992;BME280;29633;49.168;9.848;2023-06-14T06:01:58;96562.94;;;20.78;49.58
40992;BME280;29633;49.168;9.848;2023-06-14T06:04:23;96560.56;;;20.83;49.30
40992;BME280;29633;49.168;9.848;2023-06-14T06:06:49;96567.09;;;20.87;49.24
40992;BME280;29633;49.168;9.848;2023-06-14T06:09:15;96564.69;;;20.92;49.60
40992;BME280;29633;49.168;9.848;2023-06-14T06:11:41;96557.03;;;20.97;49.43
40992;BME280;29633;49.168;9.848;2023-06-14T06:14:06;96559.50;;;21.05;49.16
40992;BME280;29633;49.168;9.848;2023-06-14T06:16:32;96565.84;;;21.10;49.43
40992;BME280;29633;49.168;9.848;2023-06-14T06:18:58;96557.16;;;21.17;49.58
40992;BME280;29633;49.168;9.848;2023-06-14T06:21:24;96571.19;;;21.24;49.19
40992;BME280;29633;49.168;9.848;2023-06-14T06:23:50;96566.97;;;21.29;49.57
40992;BME280;29633;49.168;9.848;2023-06-14T06:26:16;96570.47;;;21.36;49.41
40992;BME280;29633;49.168;9.848;2023-06-14T06:28:41;96573.94;;;21.43;49.29
40992;BME280;29633;49.168;9.848;2023-06-14T06:31:07;96566.69;;;21.52;49.21
40992;BME280;29633;49.168;9.848;2023-06-14T06:33:33;96570.34;;;21.57;49.22
40992;BME280;29633;49.168;9.848;2023-06-14T06:35:58;96565.50;;;21.61;49.37
40992;BME280;29633;49.168;9.848;2023-06-14T06:38:24;96566.56;;;21.67;49.31
40992;BME280;29633;49.168;9.848;2023-06-14T06:40:50;96562.72;;;21.76;49.55
40992;BME280;29633;49.168;9.848;2023-06-14T06:43:15;96579.38;;;21.83;49.28
40992;BME280;29633;49.168;9.848;2023-06-14T06:45:42;96573.31;;;21.89;49.41
40992;BME280;29633;49.168;9.848;2023-06-14T06:48:08;96569.09;;;21.94;49.51
40992;BME280;29633;49.168;9.848;2023-06-14T06:50:36;96577.03;;;22.01;49.25
40992;BME280;29633;49.168;9.848;2023-06-14T06:53:02;96581.50;;;22.07;49.42
40992;BME280;29633;49.168;9.848;2023-06-14T06:55:27;96577.06;;;22.14;49.52
40992;BME280;29633;49.168;9.848;2023-06-14T06:57:53;96583.97;;;22.22;49.38
40992;BME280;29633;49.168;9.848;2023-06-14T07:00:20;96584.81;;;22.29;49.48
40992;BME280;29633;49.168;9.848;2023-06-14T07:02:45;96574.47;;;22.34;49.60
40992;BME280;29633;49.168;9.848;2023-06-14T07:05:11;96577.91;;;22.41;49.52
40992;BME280;29633;49.168;9.848;2023-06-14T07:07:37;96580.16;;;22.50;49.52
40992;BME280;29633;49.168;9.848;2023-06-14T07:10:04;96576.72;;;22.56;49.42
40992;BME280;29633;49.168;9.848;2023-06-14T07:12:33;96576.72;;;22.63;49.66
40992;BME280;29633;49.168;9.848;2023-06-14T07:15:01;96583.84;;;22.69;49.16
40992;BME280;29633;49.168;9.848;2023-06-14T07:17:27;96581.03;;;22.77;49.27
40992;BME280;29633;49.168;9.848;2023-06-14T07:19:52;96579.19;;;22.84;49.51
40992;BME280;29633;49.168;9.848;2023-06-14T07:22:19;96582.44;;;22.93;49.24
40992;BME280;29633;49.168;9.848;2023-06-14T07:24:45;96588.53;;;23.00;49.55
40992;BME280;29633;49.168;9.848;2023-06-14T07:27:10;96590.53;;;23.04;49.30
40992;BME280;29633;49.168;9.848;2023-06-14T07:29:38;96602.75;;;23.12;49.27
40992;BME280;29633;49.168;9.848;2023-06-14T07:32:04;96590.56;;;23.18;49.13
40992;BME280;29633;49.168;9.848;2023-06-14T07:34:30;96603.56;;;23.26;49.16
40992;BME280;29633;49.168;9.848;2023-06-14T07:36:56;96606.19;;;23.32;49.46
40992;BME280;29633;49.168;9.848;2023-06-14T07:39:21;96607.00;;;23.39;49.45
40992;BME280;29633;49.168;9.848;2023-06-14T07:41:47;96609.63;;;23.46;49.17
40992;BME280;29633;49.168;9.848;2023-06-14T07:44:13;96611.25;;;23.53;49.40
40992;BME280;29633;49.168;9.848;2023-06-14T07:46:38;96616.91;;;23.64;49.18
40992;BME280;29633;49.168;9.848;2023-06-14T07:49:04;96620.97;;;23.73;49.36
40992;BME280;29633;49.168;9.848;2023-06-14T07:51:30;96621.53;;;23.81;49.27
40992;BME280;29633;49.168;9.848;2023-06-14T07:53:56;96622.13;;;23.90;49.50
40992;BME280;29633;49.168;9.848;2023-06-14T07:56:21;96620.03;;;23.98;48.94
40992;BME280;29633;49.168;9.848;2023-06-14T07:58:48;96623.25;;;24.07;49.05
40992;BME280;29633;49.168;9.848;2023-06-14T08:01:14;96621.22;;;24.16;49.38
40992;BME280;29633;49.168;9.848;2023-06-14T08:03:40;96623.41;;;24.25;49.36
40992;BME280;29633;49.168;9.848;2023-06-14T08:06:06;96615.22;;;24.33;49.15
40992;BME280;29633;49.168;9.848;2023-06-14T08:08:32;96627.16;;;24.42;49.28
40992;BME280;29633;49.168;9.848;2023-06-14T08:10:58;96618.97;;;24.50;49.22
40992;BME280;29633;49.168;9.848;2023-06-14T08:13:24;96626.06;;;24.57;49.39
40992;BME280;29633;49.168;9.848;2023-06-14T08:15:49;96617.84;;;24.65;49.00
40992;BME280;29633;49.168;9.848;2023-06-14T08:18:15;96621.28;;;24.72;49.06
40992;BME280;29633;49.168;9.848;2023-06-14T08:20:41;96625.28;;;24.81;49.08
40992;BME280;29633;49.168;9.848;2023-06-14T08:23:07;96618.13;;;24.88;49.19
40992;BME280;29633;49.168;9.848;2023-06-14T08:25:34;96618.66;;;24.96;49.06
40992;BME280;29633;49.168;9.848;2023-06-14T08:28:00;96625.91;;;25.08;49.10
40992;BME280;29633;49.168;9.848;2023-06-14T08:30:26;96613.19;;;25.16;49.19
40992;BME280;29633;49.168;9.848;2023-06-14T08:32:52;96613.13;;;25.23;49.09
40992;BME280;29633;49.168;9.848;2023-06-14T08:35:21;96623.66;;;25.29;49.13
40992;BME280;29633;49.168;9.848;2023-06-14T08:37:47;96618.28;;;25.36;49.13
40992;BME280;29633;49.168;9.848;2023-06-14T08:40:23;96612.13;;;25.42;48.96
40992;BME280;29633;49.168;9.848;2023-06-14T08:42:54;96622.47;;;25.50;49.11
40992;BME280;29633;49.168;9.848;2023-06-14T08:45:24;96619.31;;;25.60;49.02
40992;BME280;29633;49.168;9.848;2023-06-14T08:47:50;96614.75;;;25.67;48.94
40992;BME280;29633;49.168;9.848;2023-06-14T08:50:21;96622.63;;;25.73;48.96
40992;BME280;29633;49.168;9.848;2023-06-14T08:52:48;96623.97;;;25.82;48.90
40992;BME280;29633;49.168;9.848;2023-06-14T08:55:18;96624.09;;;25.87;48.83
40992;BME280;29633;49.168;9.848;2023-06-14T08:57:46;96616.84;;;25.94;48.82
40992;BME280;29633;49.168;9.848;2023-06-14T09:00:13;96623.72;;;26.02;48.71
40992;BME280;29633;49.168;9.848;2023-06-14T09:02:39;96627.09;;;26.09;48.97
40992;BME280;29633;49.168;9.848;2023-06-14T09:05:11;96629.28;;;26.19;48.72
40992;BME280;29633;49.168;9.848;2023-06-14T09:07:44;96625.03;;;26.29;48.80
40992;BME280;29633;49.168;9.848;2023-06-14T09:10:12;96629.22;;;26.37;48.74
40992;BME280;29633;49.168;9.848;2023-06-14T09:12:38;96628.06;;;26.44;48.61
40992;BME280;29633;49.168;9.848;2023-06-14T09:15:05;96631.91;;;26.49;48.58
40992;BME280;29633;49.168;9.848;2023-06-14T09:17:38;96631.59;;;26.57;48.56
40992;BME280;29633;49.168;9.848;2023-06-14T09:20:05;96635.22;;;26.62;48.53
40992;BME280;29633;49.168;9.848;2023-06-14T09:22:32;96635.91;;;26.69;48.56
40992;BME280;29633;49.168;9.848;2023-06-14T09:24:59;96633.38;;;26.74;48.64
40992;BME280;29633;49.168;9.848;2023-06-14T09:27:28;96637.44;;;26.77;48.43
40992;BME280;29633;49.168;9.848;2023-06-14T09:29:54;96634.91;;;26.82;48.44
40992;BME280;29633;49.168;9.848;2023-06-14T09:32:21;96636.09;;;26.86;48.37
40992;BME280;29633;49.168;9.848;2023-06-14T09:34:46;96639.47;;;26.93;48.23
40992;BME280;29633;49.168;9.848;2023-06-14T09:37:12;96637.28;;;27.02;48.24
40992;BME280;29633;49.168;9.848;2023-06-14T09:39:51;96634.16;;;27.05;48.24
40992;BME280;29633;49.168;9.848;2023-06-14T09:42:17;96643.53;;;27.07;48.20
40992;BME280;29633;49.168;9.848;2023-06-14T09:44:47;96638.34;;;27.12;48.18
40992;BME280;29633;49.168;9.848;2023-06-14T09:47:15;96631.88;;;27.20;48.09
40992;BME280;29633;49.168;9.848;2023-06-14T09:49:41;96633.94;;;27.29;48.07
40992;BME280;29633;49.168;9.848;2023-06-14T09:52:08;96633.00;;;27.35;47.99
40992;BME280;29633;49.168;9.848;2023-06-14T09:54:35;96636.47;;;27.36;47.89
40992;BME280;29633;49.168;9.848;2023-06-14T09:57:06;96632.09;;;27.42;48.01
40992;BME280;29633;49.168;9.848;2023-06-14T09:59:32;96633.63;;;27.49;47.72
40992;BME280;29633;49.168;9.848;2023-06-14T10:01:58;96636.50;;;27.59;47.82
40992;BME280;29633;49.168;9.848;2023-06-14T10:04:25;96628.94;;;27.68;47.61
40992;BME280;29633;49.168;9.848;2023-06-14T10:06:52;96632.88;;;27.77;47.77
40992;BME280;29633;49.168;9.848;2023-06-14T10:09:18;96621.06;;;27.84;47.79
40992;BME280;29633;49.168;9.848;2023-06-14T10:11:45;96630.53;;;27.92;47.54
40992;BME280;29633;49.168;9.848;2023-06-14T10:14:12;96629.59;;;27.98;47.73
40992;BME280;29633;49.168;9.848;2023-06-14T10:19:21;96628.91;;;28.14;47.58
40992;BME280;29633;49.168;9.848;2023-06-14T10:22:11;96636.59;;;28.27;47.46
40992;BME280;29633;49.168;9.848;2023-06-14T10:24:43;96633.31;;;28.37;47.37
40992;BME280;29633;49.168;9.848;2023-06-14T10:27:09;96641.63;;;28.41;47.35
40992;BME280;29633;49.168;9.848;2023-06-14T10:32:22;96637.97;;;28.58;47.24
40992;BME280;29633;49.168;9.848;2023-06-14T10:35:00;96639.25;;;28.56;47.00
40992;BME280;29633;49.168;9.848;2023-06-14T10:37:26;96634.41;;;28.53;47.18
40992;BME280;29633;49.168;9.848;2023-06-14T10:39:51;96630.81;;;28.47;46.96
40992;BME280;29633;49.168;9.848;2023-06-14T10:42:18;96633.75;;;28.46;47.27
40992;BME280;29633;49.168;9.848;2023-06-14T10:44:46;96633.03;;;28.50;47.07
40992;BME280;29633;49.168;9.848;2023-06-14T10:49:53;96632.59;;;28.70;46.84
40992;BME280;29633;49.168;9.848;2023-06-14T10:52:25;96634.88;;;28.78;46.91
40992;BME280;29633;49.168;9.848;2023-06-14T10:57:27;96624.22;;;28.78;46.77
40992;BME280;29633;49.168;9.848;2023-06-14T10:59:53;96627.44;;;28.80;46.92
40992;BME280;29633;49.168;9.848;2023-06-14T11:04:51;96626.97;;;28.83;46.91
40992;BME280;29633;49.168;9.848;2023-06-14T11:07:38;96628.09;;;28.87;46.63
40992;BME280;29633;49.168;9.848;2023-06-14T11:10:34;96623.34;;;28.89;46.60
40992;BME280;29633;49.168;9.848;2023-06-14T11:13:01;96619.19;;;28.98;46.44
40992;BME280;29633;49.168;9.848;2023-06-14T11:15:32;96617.75;;;29.07;46.33
40992;BME280;29633;49.168;9.848;2023-06-14T11:18:00;96619.94;;;29.10;46.16
40992;BME280;29633;49.168;9.848;2023-06-14T11:20:27;96623.16;;;29.12;46.58
40992;BME280;29633;49.168;9.848;2023-06-14T11:22:53;96627.22;;;29.15;46.35
40992;BME280;29633;49.168;9.848;2023-06-14T11:25:19;96620.34;;;29.19;46.35
40992;BME280;29633;49.168;9.848;2023-06-14T11:27:45;96624.28;;;29.16;46.54
40992;BME280;29633;49.168;9.848;2023-06-14T11:30:12;96619.25;;;29.20;46.28
40992;BME280;29633;49.168;9.848;2023-06-14T11:32:40;96621.34;;;29.29;46.10
40992;BME280;29633;49.168;9.848;2023-06-14T11:35:06;96625.69;;;29.36;46.32
40992;BME280;29633;49.168;9.848;2023-06-14T11:37:33;96620.88;;;29.38;45.98
40992;BME280;29633;49.168;9.848;2023-06-14T11:40:02;96616.13;;;29.40;46.12
40992;BME280;29633;49.168;9.848;2023-06-14T11:42:32;96616.63;;;29.37;46.15
40992;BME280;29633;49.168;9.848;2023-06-14T11:44:57;96626.22;;;29.38;46.05
40992;BME280;29633;49.168;9.848;2023-06-14T11:47:23;96623.00;;;29.36;45.95
40992;BME280;29633;49.168;9.848;2023-06-14T11:49:48;96618.72;;;29.35;45.86
40992;BME280;29633;49.168;9.848;2023-06-14T11:52:14;96619.22;;;29.31;45.79
40992;BME280;29633;49.168;9.848;2023-06-14T11:54:40;96620.53;;;29.29;46.07
40992;BME280;29633;49.168;9.848;2023-06-14T11:57:07;96615.06;;;29.24;45.95
40992;BME280;29633;49.168;9.848;2023-06-14T11:59:43;96613.13;;;29.19;45.98
40992;BME280;29633;49.168;9.848;2023-06-14T12:02:13;96613.59;;;29.16;45.91
40992;BME280;29633;49.168;9.848;2023-06-14T12:04:41;96615.31;;;29.06;46.01
40992;BME280;29633;49.168;9.848;2023-06-14T12:07:12;96621.31;;;28.96;45.76
40992;BME280;29633;49.168;9.848;2023-06-14T12:12:26;96606.50;;;29.05;45.58
40992;BME280;29633;49.168;9.848;2023-06-14T12:14:56;96613.88;;;29.15;45.60
40992;BME280;29633;49.168;9.848;2023-06-14T12:17:22;96607.88;;;29.24;45.41
40992;BME280;29633;49.168;9.848;2023-06-14T12:19:49;96611.56;;;29.23;45.54
40992;BME280;29633;49.168;9.848;2023-06-14T12:22:16;96610.22;;;29.21;45.30
40992;BME280;29633;49.168;9.848;2023-06-14T12:24:43;96613.69;;;29.21;45.23
40992;BME280;29633;49.168;9.848;2023-06-14T12:27:08;96614.50;;;29.22;45.42
40992;BME280;29633;49.168;9.848;2023-06-14T12:29:37;96606.50;;;29.22;45.48
40992;BME280;29633;49.168;9.848;2023-06-14T12:32:03;96608.34;;;29.21;45.17
40992;BME280;29633;49.168;9.848;2023-06-14T12:34:29;96616.84;;;29.18;45.41
40992;BME280;29633;49.168;9.848;2023-06-14T12:36:56;96614.19;;;29.18;45.28
40992;BME280;29633;49.168;9.848;2023-06-14T12:39:22;96610.72;;;29.18;45.39
40992;BME280;29633;49.168;9.848;2023-06-14T12:41:48;96611.25;;;29.20;45.38
40992;BME280;29633;49.168;9.848;2023-06-14T12:44:14;96607.78;;;29.19;45.19
40992;BME280;29633;49.168;9.848;2023-06-14T12:46:41;96613.38;;;29.18;45.17
40992;BME280;29633;49.168;9.848;2023-06-14T12:49:09;96604.06;;;29.20;44.86
40992;BME280;29633;49.168;9.848;2023-06-14T12:51:35;96612.75;;;29.27;44.88
40992;BME280;29633;49.168;9.848;2023-06-14T12:54:01;96618.16;;;29.33;44.96
40992;BME280;29633;49.168;9.848;2023-06-14T12:56:26;96609.66;;;29.36;45.28
40992;BME280;29633;49.168;9.848;2023-06-14T12:58:52;96611.34;;;29.42;45.16
40992;BME280;29633;49.168;9.848;2023-06-14T13:01:18;96617.00;;;29.45;45.12
40992;BME280;29633;49.168;9.848;2023-06-14T13:03:45;96616.59;;;29.53;45.13
40992;BME280;29633;49.168;9.848;2023-06-14T13:06:11;96614.81;;;29.59;45.21
40992;BME280;29633;49.168;9.848;2023-06-14T13:08:37;96619.97;;;29.65;45.03
40992;BME280;29633;49.168;9.848;2023-06-14T13:11:02;96611.69;;;29.67;45.12
40992;BME280;29633;49.168;9.848;2023-06-14T13:13:28;96609.31;;;29.70;44.67
40992;BME280;29633;49.168;9.848;2023-06-14T13:15:56;96605.41;;;29.78;44.82
40992;BME280;29633;49.168;9.848;2023-06-14T13:18:22;96607.13;;;29.84;44.82
40992;BME280;29633;49.168;9.848;2023-06-14T13:20:49;96606.69;;;29.92;44.78